createdAt,value
2018-04-23T00:01:32.629Z,19.30
2018-04-23T00:04:01.103Z,19.20
2018-04-23T00:06:28.642Z,19.10
2018-04-23T00:08:56.418Z,19.00
2018-04-23T00:11:25.358Z,18.90
2018-04-23T00:13:53.644Z,18.80
2018-04-23T00:16:22.083Z,18.70
2018-04-23T00:18:50.709Z,18.70
2018-04-23T00:21:18.217Z,18.60
2018-04-23T00:24:05.435Z,18.50
2018-04-23T00:26:39.762Z,18.50
2018-04-23T00:29:24.142Z,18.30
2018-04-23T00:31:51.662Z,18.30
2018-04-23T00:34:22.551Z,18.30
2018-04-23T00:36:50.259Z,18.30
2018-04-23T00:42:07.854Z,18.10
2018-04-23T00:44:50.975Z,18.00
2018-04-23T00:47:26.355Z,18.00
2018-04-23T00:49:53.906Z,17.90
2018-04-23T00:52:28.200Z,17.90
2018-04-23T00:54:56.014Z,17.80
2018-04-23T00:57:25.808Z,17.70
2018-04-23T00:59:56.688Z,17.60
2018-04-23T01:02:24.400Z,17.40
2018-04-23T01:05:05.434Z,17.40
2018-04-23T01:07:33.274Z,17.50
2018-04-23T01:10:16.773Z,17.50
2018-04-23T01:12:49.939Z,17.50
2018-04-23T01:15:17.823Z,17.60
2018-04-23T01:17:45.898Z,17.50
2018-04-23T01:20:13.508Z,17.40
2018-04-23T01:22:41.781Z,17.30
2018-04-23T01:25:09.372Z,17.30
2018-04-23T01:27:49.295Z,17.30
2018-04-23T01:30:17.902Z,17.30
2018-04-23T01:32:45.526Z,17.30
2018-04-23T01:35:13.070Z,17.20
2018-04-23T01:37:41.342Z,17.00
2018-04-23T01:40:09.651Z,16.90
2018-04-23T01:42:37.224Z,16.90
2018-04-23T01:45:05.482Z,17.00
2018-04-23T01:47:33.151Z,17.00
2018-04-23T01:50:00.658Z,17.00
2018-04-23T01:55:07.967Z,16.90
2018-04-23T01:57:36.610Z,17.00
2018-04-23T02:00:04.115Z,17.00
2018-04-23T02:02:40.129Z,17.00
2018-04-23T02:05:07.651Z,17.00
2018-04-23T02:07:35.308Z,17.10
2018-04-23T02:12:56.664Z,17.10
2018-04-23T02:15:24.192Z,17.00
2018-04-23T02:20:49.167Z,17.00
2018-04-23T02:23:16.832Z,17.10
2018-04-23T02:25:44.366Z,17.10
2018-04-23T02:28:12.753Z,17.20
2018-04-23T02:30:46.673Z,17.20
2018-04-23T02:33:15.015Z,17.20
2018-04-23T02:35:42.592Z,17.30
2018-04-23T02:41:26.058Z,17.80
2018-04-23T02:43:53.549Z,17.70
2018-04-23T02:46:24.472Z,17.80
2018-04-23T02:48:52.045Z,17.80
2018-04-23T02:51:19.546Z,17.70
2018-04-23T02:54:02.280Z,17.70
2018-04-23T02:59:26.890Z,17.50
2018-04-23T03:01:54.495Z,17.50
2018-04-23T03:04:22.865Z,17.30
2018-04-23T03:06:57.036Z,17.30
2018-04-23T03:13:58.672Z,17.10
2018-04-23T03:16:26.265Z,17.10
2018-04-23T03:18:53.835Z,17.10
2018-04-23T03:21:21.364Z,17.20
2018-04-23T03:26:53.514Z,17.40
2018-04-23T03:29:27.526Z,17.50
2018-04-23T03:31:55.170Z,17.60
2018-04-23T03:34:29.375Z,17.70
2018-04-23T03:36:57.203Z,17.70
2018-04-23T03:39:47.081Z,17.80
2018-04-23T03:42:15.448Z,17.80
2018-04-23T03:44:43.037Z,17.80
2018-04-23T03:47:19.455Z,17.80
2018-04-23T03:49:47.145Z,17.80
2018-04-23T07:12:29.920Z,18.90
2018-04-23T07:14:58.497Z,19.00
2018-04-23T07:17:26.785Z,19.00
2018-04-23T07:19:56.935Z,19.00
2018-04-23T07:22:30.994Z,19.00
2018-04-23T07:24:58.470Z,19.10
2018-04-23T07:27:27.935Z,19.20
2018-04-23T07:29:59.001Z,19.20
2018-04-23T07:38:26.323Z,19.10
2018-04-23T07:40:54.583Z,19.20
2018-04-23T07:43:31.945Z,19.20
2018-04-23T07:46:05.471Z,19.30
2018-04-23T07:48:46.026Z,19.30
2018-04-23T08:02:58.595Z,19.40
2018-04-23T08:05:26.887Z,19.30
2018-04-23T08:10:59.115Z,19.30
2018-04-23T08:13:57.257Z,19.60
2018-04-23T08:16:27.614Z,19.50
2018-04-23T08:18:57.022Z,19.40
2018-04-23T08:21:30.526Z,19.40
2018-04-23T08:23:58.479Z,19.40
2018-04-23T08:26:27.901Z,19.40
2018-04-23T08:28:57.283Z,19.50
2018-04-23T08:31:26.779Z,19.50
2018-04-23T08:33:56.973Z,19.70
2018-04-23T08:36:27.797Z,19.70
2018-04-23T08:42:07.331Z,20.00
2018-04-23T08:44:39.518Z,20.00
2018-04-23T08:47:07.220Z,20.10
2018-04-23T08:49:34.814Z,20.10
2018-04-23T08:52:02.771Z,20.10
2018-04-23T08:54:47.770Z,20.10
2018-04-23T08:57:15.260Z,20.10
2018-04-23T08:59:42.809Z,20.10
2018-04-23T09:02:11.358Z,20.00
2018-04-23T09:04:38.889Z,20.00
2018-04-23T09:07:12.632Z,19.90
2018-04-23T09:09:40.482Z,19.90
2018-04-23T09:12:08.025Z,19.90
2018-04-23T09:14:36.276Z,20.00
2018-04-23T09:17:03.754Z,20.00
2018-04-23T09:19:56.252Z,20.10
2018-04-23T09:22:23.769Z,20.10
2018-04-23T09:24:51.631Z,20.10
2018-04-23T09:27:21.076Z,20.20
2018-04-23T09:29:48.601Z,20.30
2018-04-23T09:32:22.734Z,20.40
2018-04-23T09:34:50.469Z,20.50
2018-04-23T09:37:18.027Z,20.60
2018-04-23T09:39:45.686Z,20.70
2018-04-23T09:42:13.523Z,20.60
2018-04-23T09:44:44.399Z,20.60
2018-04-23T09:47:15.162Z,20.60
2018-04-23T09:49:42.971Z,20.70
2018-04-23T09:52:10.562Z,20.90
2018-04-23T09:54:40.578Z,21.70
2018-04-23T09:57:08.993Z,22.10
2018-04-23T09:59:36.540Z,22.10
2018-04-23T10:02:07.574Z,22.60
2018-04-23T10:04:38.437Z,22.90
2018-04-23T10:07:06.115Z,23.20
2018-04-23T10:09:38.341Z,23.60
2018-04-23T10:12:05.947Z,23.60
2018-04-23T10:14:39.520Z,23.90
2018-04-23T10:17:08.764Z,24.20
2018-04-23T10:19:36.286Z,24.40
2018-04-23T10:22:03.869Z,24.50
2018-04-23T10:24:48.725Z,24.80
2018-04-23T10:27:16.507Z,24.80
2018-04-23T10:29:48.516Z,24.50
2018-04-23T10:32:16.147Z,24.10
2018-04-23T10:34:44.392Z,23.20
2018-04-23T10:37:11.910Z,23.10
2018-04-23T10:39:39.398Z,22.70
2018-04-23T10:42:06.905Z,22.10
2018-04-23T10:44:43.578Z,21.80
2018-04-23T10:47:16.986Z,21.80
2018-04-23T10:49:45.663Z,21.80
2018-04-23T10:53:43.363Z,21.90
2018-04-23T10:56:10.875Z,21.90
2018-04-23T10:58:40.213Z,21.80
2018-04-23T11:01:08.026Z,21.90
2018-04-23T11:03:35.813Z,22.00
2018-04-23T11:06:06.043Z,22.20
2018-04-23T11:08:38.874Z,22.70
2018-04-23T11:17:09.505Z,22.90
2018-04-23T11:19:41.796Z,22.90
2018-04-23T11:22:11.128Z,23.10
2018-04-23T11:30:39.423Z,22.60
2018-04-23T11:33:12.647Z,22.60
2018-04-23T11:35:41.166Z,22.50
2018-04-23T11:38:14.409Z,22.50
2018-04-23T11:40:43.335Z,22.60
2018-04-23T11:43:11.638Z,22.60
2018-04-23T11:51:32.927Z,22.80
2018-04-23T11:54:11.032Z,22.80
2018-04-23T11:59:40.393Z,22.80
2018-04-23T12:02:08.392Z,22.70
2018-04-23T12:04:41.230Z,22.80
2018-04-23T12:07:32.731Z,23.90
2018-04-23T12:10:15.392Z,23.90
2018-04-23T12:12:43.033Z,24.20
2018-04-23T12:15:12.596Z,24.00
2018-04-23T12:17:40.369Z,23.70
2018-04-23T12:20:08.226Z,23.20
2018-04-23T12:22:36.559Z,23.20
2018-04-23T12:25:04.052Z,23.10
2018-04-23T12:27:31.560Z,23.20
2018-04-23T12:29:59.147Z,23.10
2018-04-23T12:32:37.343Z,23.00
2018-04-23T12:35:05.646Z,22.70
2018-04-23T12:37:47.660Z,22.70
2018-04-23T12:40:15.990Z,22.60
2018-04-23T12:42:43.491Z,22.60
2018-04-23T12:45:11.293Z,22.60
2018-04-23T12:47:38.765Z,22.30
2018-04-23T12:50:06.300Z,22.20
2018-04-23T12:52:34.905Z,22.30
2018-04-23T12:55:05.698Z,22.50
2018-04-23T12:57:33.238Z,22.70
2018-04-23T13:00:01.926Z,22.40
2018-04-23T13:02:29.452Z,22.40
2018-04-23T13:04:58.632Z,22.20
2018-04-23T13:07:31.350Z,22.00
2018-04-23T13:09:59.611Z,21.30
2018-04-23T13:12:35.847Z,21.20
2018-04-23T13:15:04.196Z,20.50
2018-04-23T13:17:40.562Z,19.60
2018-04-23T13:23:37.069Z,18.60
2018-04-23T13:26:11.588Z,18.30
2018-04-23T13:28:43.431Z,18.00
2018-04-23T13:31:11.699Z,17.80
2018-04-23T13:36:35.146Z,18.00
2018-04-23T13:39:50.500Z,18.00
2018-04-23T13:42:40.275Z,18.10
2018-04-23T13:45:11.222Z,18.20
2018-04-23T13:47:39.760Z,18.20
2018-04-23T13:50:19.063Z,18.90
2018-04-23T13:52:53.875Z,18.90
2018-04-23T13:55:38.390Z,18.90
2018-04-23T13:58:06.063Z,18.80
2018-04-23T14:00:40.666Z,18.70
2018-04-23T14:03:09.804Z,18.40
2018-04-23T14:05:43.911Z,18.40
2018-04-23T14:08:11.465Z,18.30
2018-04-23T14:10:41.872Z,18.40
2018-04-23T14:27:31.606Z,19.00
2018-04-23T14:29:59.127Z,19.40
2018-04-23T14:32:45.891Z,19.70
2018-04-23T14:38:01.364Z,19.90
2018-04-23T14:40:34.425Z,19.90
2018-04-23T14:43:02.099Z,19.80
2018-04-23T14:48:14.483Z,20.00
2018-04-23T14:50:42.026Z,20.00
2018-04-23T14:53:09.655Z,20.00
2018-04-23T14:55:57.368Z,20.10
2018-04-23T14:58:25.688Z,20.20
2018-04-23T15:00:53.431Z,20.20
2018-04-23T15:03:20.945Z,20.10
2018-04-23T15:05:48.549Z,20.20
2018-04-23T15:08:16.135Z,20.30
2018-04-23T15:10:43.704Z,20.40
2018-04-23T15:13:14.933Z,20.50
2018-04-23T15:18:39.835Z,20.50
2018-04-23T15:21:09.479Z,20.60
2018-04-23T15:23:40.311Z,20.60
2018-04-23T15:26:09.047Z,20.70
2018-04-23T15:28:36.552Z,20.80
2018-04-23T15:31:06.470Z,20.80
2018-04-23T15:33:41.830Z,20.80
2018-04-23T15:36:17.187Z,20.70
2018-04-23T15:39:05.668Z,20.80
2018-04-23T15:41:41.069Z,20.90
2018-04-23T15:44:10.655Z,20.90
2018-04-23T15:46:41.150Z,21.20
2018-04-23T15:49:12.576Z,21.10
2018-04-23T15:51:46.092Z,21.30
2018-04-23T15:54:13.677Z,21.50
2018-04-23T15:56:44.151Z,21.50
2018-04-23T15:59:11.674Z,21.50
2018-04-23T16:01:43.305Z,21.60
2018-04-23T16:04:26.876Z,21.70
2018-04-23T16:06:54.392Z,21.70
2018-04-23T16:09:21.970Z,21.60
2018-04-23T16:11:58.148Z,21.40
2018-04-23T16:14:26.128Z,21.20
2018-04-23T16:16:57.949Z,21.10
2018-04-23T16:19:30.288Z,21.10
2018-04-23T16:22:08.771Z,21.20
2018-04-23T16:27:32.261Z,21.00
2018-04-23T16:30:10.193Z,20.90
2018-04-23T16:32:48.279Z,20.90
2018-04-23T16:38:16.446Z,20.70
2018-04-23T16:40:44.343Z,20.60
2018-04-23T16:43:11.848Z,20.60
2018-04-23T16:45:40.058Z,20.40
2018-04-23T16:48:09.157Z,20.30
2018-04-23T16:50:41.497Z,20.30
2018-04-23T16:53:10.349Z,20.30
2018-04-23T16:55:38.579Z,20.30
2018-04-23T16:58:08.938Z,20.30
2018-04-23T17:00:38.874Z,20.30
2018-04-23T17:03:08.150Z,20.30
2018-04-23T17:08:08.088Z,20.30
2018-04-23T17:10:39.067Z,20.30
2018-04-23T17:13:08.930Z,20.40
2018-04-23T17:15:37.396Z,20.40
2018-04-23T17:18:12.289Z,20.30
2018-04-23T17:20:41.623Z,20.40
2018-04-23T17:23:09.163Z,20.30
2018-04-23T17:25:37.728Z,20.40
2018-04-23T17:28:11.675Z,20.40
2018-04-23T17:30:40.523Z,20.50
2018-04-23T17:33:11.251Z,20.40
2018-04-23T17:35:41.234Z,20.40
2018-04-23T17:38:11.741Z,20.30
2018-04-23T17:40:40.269Z,20.20
2018-04-23T17:46:11.032Z,20.30
2018-04-23T17:48:41.191Z,20.30
2018-04-23T17:51:09.594Z,20.00
2018-04-23T17:53:41.044Z,20.10
2018-04-23T17:56:10.277Z,20.00
2018-04-23T17:58:42.002Z,20.00
2018-04-23T18:01:09.676Z,20.10
2018-04-23T18:55:09.161Z,18.40
2018-04-23T18:57:41.136Z,18.30
2018-04-23T19:00:09.702Z,18.20
2018-04-23T19:02:40.942Z,18.10
2018-04-23T19:05:14.746Z,18.10
2018-04-23T19:10:42.944Z,18.10
2018-04-23T19:13:11.530Z,18.00
2018-04-23T19:15:42.139Z,17.90
2018-04-23T19:18:09.848Z,18.00
2018-04-23T19:20:41.890Z,18.10
2018-04-23T19:23:11.566Z,18.10
2018-04-23T19:25:40.694Z,18.10
2018-04-23T19:28:09.500Z,18.10
2018-04-23T19:30:41.213Z,18.10
2018-04-23T19:33:10.903Z,18.10
2018-04-23T19:35:40.653Z,18.00
2018-04-23T19:38:09.365Z,17.80
2018-04-23T19:40:40.286Z,17.80
2018-04-23T19:43:11.244Z,17.70
2018-04-23T19:45:40.917Z,17.50
2018-04-23T19:48:20.479Z,17.20
2018-04-23T19:50:48.739Z,17.20
2018-04-23T19:53:23.135Z,17.10
2018-04-23T19:56:09.181Z,16.80
2018-04-23T19:58:43.742Z,16.70
2018-04-23T20:01:20.725Z,16.60
2018-04-23T20:03:48.208Z,16.60
2018-04-23T20:06:16.530Z,16.40
2018-04-23T20:08:52.532Z,16.40
2018-04-23T20:11:23.670Z,16.40
2018-04-23T20:14:01.272Z,16.30
2018-04-23T20:16:54.667Z,16.10
2018-04-23T20:19:22.190Z,16.10
2018-04-23T20:21:50.472Z,16.00
2018-04-23T20:24:18.881Z,15.90
2018-04-23T20:26:46.273Z,15.90
2018-04-23T20:29:20.199Z,15.70
2018-04-23T20:31:49.731Z,15.60
2018-04-23T20:34:17.229Z,15.50
2018-04-23T20:36:45.593Z,15.50
2018-04-23T20:39:13.385Z,15.50
2018-04-23T20:41:40.959Z,15.40
2018-04-23T20:44:08.444Z,15.40
2018-04-23T20:46:36.722Z,15.20
2018-04-23T20:49:10.461Z,15.20
2018-04-23T20:51:38.061Z,15.10
2018-04-23T20:54:07.479Z,14.90
2018-04-23T20:56:44.741Z,14.80
2018-04-23T20:59:19.401Z,14.80
2018-04-23T21:01:47.798Z,14.80
2018-04-23T21:04:21.042Z,14.70
2018-04-23T21:06:48.587Z,14.70
2018-04-23T21:09:21.970Z,14.70
2018-04-23T21:11:55.648Z,14.70
2018-04-23T21:14:23.203Z,14.60
2018-04-23T21:16:56.404Z,14.40
2018-04-23T21:19:24.985Z,14.40
2018-04-23T21:21:54.727Z,14.10
2018-04-23T21:24:24.370Z,14.10
2018-04-23T21:27:03.611Z,14.00
2018-04-23T21:29:34.296Z,14.00
2018-04-23T21:32:03.179Z,13.90
2018-04-23T21:34:37.186Z,14.00
2018-04-23T21:37:05.479Z,13.90
2018-04-23T21:39:34.161Z,13.80
2018-04-23T21:42:03.032Z,13.80
2018-04-23T21:44:34.582Z,13.80
2018-04-23T21:47:02.148Z,13.80
2018-04-23T21:49:29.654Z,13.80
2018-04-23T21:51:57.267Z,13.70
2018-04-23T21:54:26.787Z,13.70
2018-04-23T21:56:58.822Z,13.60
2018-04-23T21:59:26.384Z,13.50
2018-04-23T22:01:53.967Z,13.50
2018-04-23T22:04:21.521Z,13.60
2018-04-23T22:06:49.021Z,13.60
2018-04-23T22:09:17.143Z,13.50
2018-04-23T22:11:44.649Z,13.50
2018-04-23T22:14:12.144Z,13.50
2018-04-23T22:16:39.640Z,13.50
2018-04-23T22:19:07.899Z,13.40
2018-04-23T22:21:36.431Z,13.40
2018-04-23T22:24:03.923Z,13.30
2018-04-23T22:26:37.354Z,13.20
2018-04-23T22:29:06.280Z,13.10
2018-04-23T22:31:33.756Z,13.00
2018-04-23T22:34:02.039Z,13.00
2018-04-23T22:36:29.545Z,13.00
2018-04-23T22:38:57.028Z,13.10
2018-04-23T22:41:30.067Z,13.10
2018-04-23T22:43:57.560Z,13.20
2018-04-23T22:46:25.878Z,13.40
2018-04-23T22:48:55.122Z,13.50
2018-04-23T22:51:22.632Z,13.50
2018-04-23T22:53:55.031Z,13.50
2018-04-23T22:56:41.230Z,13.50
2018-04-23T22:59:11.374Z,13.50
2018-04-23T23:01:38.994Z,13.50
2018-04-23T23:04:06.497Z,13.50
2018-04-23T23:06:34.033Z,13.50
2018-04-23T23:09:01.826Z,13.50
2018-04-23T23:11:29.668Z,13.50
2018-04-23T23:13:57.151Z,13.50
2018-04-23T23:16:28.185Z,13.50
2018-04-23T23:18:55.735Z,13.60
2018-04-23T23:21:23.211Z,13.60
2018-04-23T23:23:50.691Z,13.60
2018-04-23T23:26:18.170Z,13.40
2018-04-23T23:28:45.662Z,13.40
2018-04-23T23:31:13.139Z,13.50
2018-04-23T23:33:40.728Z,13.50
2018-04-23T23:36:08.202Z,13.60
2018-04-23T23:38:39.052Z,13.60
2018-04-23T23:41:07.274Z,13.70
2018-04-23T23:43:35.544Z,13.80
2018-04-23T23:46:03.132Z,13.80
2018-04-23T23:48:33.303Z,13.80
2018-04-23T23:51:00.835Z,13.80
2018-04-23T23:53:28.379Z,13.80
2018-04-23T23:55:55.844Z,13.70
2018-04-23T23:58:23.519Z,13.70
